This is the latest recevied weather packets stored in our database for station/object KJ4YLO. If no packets are shown the sender has not sent any weather packets the latest 1 day(s).
| Time | Temp. | Humidity | Pressure | Rain* | Wind** | Luminosity | Snow |
|---|---|---|---|---|---|---|---|
| 1777996016 | 21.67° C | 46% | 1018.3 hPa | 0 mm | 0.45 m/s, 320° | 734 W/m² | - |
| 1777995712 | 21.67° C | 48% | 1018.3 hPa | 0 mm | 0.45 m/s, 320° | 438 W/m² | - |
| 1777995409 | 21.67° C | 51% | 1018.3 hPa | 0 mm | 0 m/s | 173 W/m² | - |
| 1777995106 | 21.11° C | 46% | 1018.3 hPa | 0 mm | 0.45 m/s, 354° | 211 W/m² | - |
| 1777994803 | 21.11° C | 49% | 1018.3 hPa | 0 mm | 0 m/s | 183 W/m² | - |
| 1777994499 | 20.56° C | 49% | 1018.3 hPa | 0 mm | 0.89 m/s, 179° | 191 W/m² | - |
| 1777994194 | 20.56° C | 49% | 1018.3 hPa | 0 mm | 0.45 m/s, 309° | 163 W/m² | - |
| 1777993892 | 20° C | 51% | 1018.6 hPa | 0 mm | 0.45 m/s, 325° | 153 W/m² | - |
| 1777993588 | 19.44° C | 52% | 1018.3 hPa | 0 mm | 0 m/s | 123 W/m² | - |
| 1777993285 | 19.44° C | 52% | 1018.6 hPa | 0 mm | 0.89 m/s, 162° | 157 W/m² | - |
| 1777992980 | 19.44° C | 58% | 1018.6 hPa | 0 mm | 0 m/s | 146 W/m² | - |
| 1777992679 | 18.89° C | 59% | 1019 hPa | 0 mm | 0 m/s | 145 W/m² | - |
| 1777992377 | 18.89° C | 58% | 1018.3 hPa | 0 mm | 0 m/s | 137 W/m² | - |
| 1777992074 | 18.89° C | 61% | 1018.3 hPa | 0 mm | 0 m/s | 87 W/m² | - |
| 1777991771 | 18.33° C | 61% | 1018.3 hPa | 0 mm | 0 m/s | 72 W/m² | - |
| 1777991468 | 17.78° C | 58% | 1018.6 hPa | 0 mm | 0 m/s | 81 W/m² | - |
| 1777991166 | 17.78° C | 60% | 1018.6 hPa | 0 mm | 0 m/s | 58 W/m² | - |
| 1777990863 | 17.78° C | 60% | 1018.3 hPa | 0 mm | 0 m/s | 239 W/m² | - |
| 1777990560 | 17.78° C | 62% | 1018.3 hPa | 0 mm | 0 m/s | 298 W/m² | - |
| 1777990257 | 16.67° C | 61% | 1018.3 hPa | 0 mm | 0 m/s | 123 W/m² | - |
| 1777989954 | 16.67° C | 63% | 1018.3 hPa | 0 mm | 0 m/s | 245 W/m² | - |
| 1777989650 | 16.67° C | 64% | 1018.3 hPa | 0 mm | 0 m/s | 164 W/m² | - |
| 1777989347 | 16.11° C | 64% | 1018 hPa | 0 mm | 0 m/s | 79 W/m² | - |
| 1777989043 | 16.11° C | 64% | 1018.3 hPa | 0 mm | 0 m/s | 75 W/m² | - |
| 1777988739 | 15.56° C | 67% | 1018 hPa | 0 mm | 0 m/s | 74 W/m² | - |
* Rain latest hour (hover to see other rain measurements)
** Current wind speed in m/s (hover to see current wind gust speed)